Time;durP1;ratioP1;P1;durP2;ratioP2;P2;SDS_P1;SDS_P2;PMS_P1;PMS_P2;Temp;Humidity;BMP_temperature;BMP_pressure;BME280_temperature;BME280_humidity;BME280_pressure;Samples;Min_cycle;Max_cycle;Signal;HPM_P1;HPM_P2
2021/10/16 09:02:52;;;;;;;29.72;16.06;;;;;;;11.74;55.88;100043.41;371214;142;879626;-57
2021/10/16 09:03:55;;;;;;;24.81;14.31;;;;;;;11.70;56.54;100049.51;362386;145;856335;-58
2021/10/16 09:05:08;;;;;;;28.92;14.48;;;;;;;11.76;55.92;100040.78;363671;145;856418;-59
2021/10/16 09:06:30;;;;;;;29.98;16.28;;;;;;;11.86;55.56;100044.98;361178;145;857002;-59
2021/10/16 09:07:32;;;;;;;26.31;16.17;;;;;;;11.99;55.49;100043.12;362667;145;856887;-60
2021/10/16 09:08:53;;;;;;;22.46;12.20;;;;;;;12.20;55.68;100041.16;359310;147;856158;-60
2021/10/16 09:09:55;;;;;;;20.36;12.43;;;;;;;12.31;54.51;100036.68;360164;145;856206;-57
2021/10/16 09:11:24;;;;;;;24.22;14.50;;;;;;;12.33;54.44;100027.13;361390;145;856924;-60
2021/10/16 09:12:25;;;;;;;25.04;15.12;;;;;;;12.39;54.12;100026.20;363909;144;856435;-60
2021/10/16 09:13:31;;;;;;;22.16;13.40;;;;;;;12.52;54.12;100030.34;361484;144;856260;-62
2021/10/16 09:14:33;;;;;;;24.19;14.06;;;;;;;12.63;53.76;100035.35;362448;145;856565;-60
2021/10/16 09:15:36;;;;;;;25.25;13.11;;;;;;;12.69;52.82;100037.86;362638;145;860688;-61
2021/10/16 09:16:40;;;;;;;24.35;13.73;;;;;;;12.74;52.31;100036.96;341387;153;864917;-61
2021/10/16 09:17:45;;;;;;;21.11;13.36;;;;;;;12.81;52.71;100036.83;345473;150;865022;-61
2021/10/16 09:18:59;;;;;;;23.52;13.77;;;;;;;12.88;52.07;100037.59;357423;147;858010;-61
2021/10/16 09:20:09;;;;;;;20.55;12.72;;;;;;;12.94;51.86;100032.30;362168;148;856511;-60
2021/10/16 09:21:15;;;;;;;22.94;13.76;;;;;;;13.02;51.39;100033.91;359138;147;856325;-59
2021/10/16 09:22:20;;;;;;;27.02;14.31;;;;;;;13.14;52.23;100029.34;358747;148;863849;-58
2021/10/16 09:23:22;;;;;;;19.91;11.75;;;;;;;13.29;51.55;100032.59;359255;148;856168;-58
2021/10/16 09:24:27;;;;;;;24.17;13.12;;;;;;;13.41;50.65;100026.30;346194;153;856226;-59
2021/10/16 09:25:29;;;;;;;25.44;13.52;;;;;;;13.50;50.54;100025.31;346740;150;864291;-61
2021/10/16 09:26:32;;;;;;;20.84;13.49;;;;;;;13.54;49.27;100027.81;359072;148;856229;-59
2021/10/16 09:27:33;;;;;;;21.82;13.88;;;;;;;13.65;50.34;100022.41;357201;148;856502;-59
2021/10/16 09:28:36;;;;;;;17.36;10.59;;;;;;;;;;359297;147;856367;-58
2021/10/16 09:29:39;;;;;;;16.80;10.23;;;;;;;;;;355438;147;864196;-58
2021/10/16 09:30:47;;;;;;;21.32;13.75;;;;;;;;;;359580;149;856779;-58
2021/10/16 09:31:50;;;;;;;22.78;13.82;;;;;;;;;;358330;147;856597;-58
2021/10/16 09:32:56;;;;;;;21.13;12.97;;;;;;;;;;359366;148;856294;-57
2021/10/16 09:33:57;;;;;;;19.00;12.31;;;;;;;;;;359390;148;856797;-58
2021/10/16 09:34:59;;;;;;;16.90;11.63;;;;;;;;;;359159;147;856164;-59
2021/10/16 09:36:01;;;;;;;19.46;10.53;;;;;;;;;;358063;147;863992;-61
2021/10/16 09:37:06;;;;;;;24.86;12.67;;;;;;;;;;356551;148;856442;-59
2021/10/16 09:38:08;;;;;;;23.87;13.73;;;;;;;;;;356217;148;856409;-59
2021/10/16 09:39:12;;;;;;;20.16;11.55;;;;;;;;;;358391;147;856774;-59
2021/10/16 09:40:13;;;;;;;18.08;11.93;;;;;;;;;;356503;148;856484;-59
2021/10/16 09:41:22;;;;;;;19.66;12.55;;;;;;;;;;358966;149;863945;-59
2021/10/16 09:42:42;;;;;;;23.67;14.04;;;;;;;;;;359034;147;856793;-59
2021/10/16 09:43:44;;;;;;;17.90;11.44;;;;;;;;;;357219;147;856434;-59
2021/10/16 09:44:47;;;;;;;21.29;11.65;;;;;;;;;;351358;151;865224;-59
2021/10/16 09:45:49;;;;;;;18.46;12.41;;;;;;;;;;358266;147;863823;-59
2021/10/16 09:47:11;;;;;;;19.99;12.47;;;;;;;;;;353372;149;856201;-59
2021/10/16 09:48:13;;;;;;;20.97;12.17;;;;;;;;;;351258;148;856885;-59
2021/10/16 09:49:15;;;;;;;23.15;12.53;;;;;;;;;;345471;153;856359;-59
2021/10/16 09:50:16;;;;;;;18.54;12.06;;;;;;;;;;352777;150;856348;-59
2021/10/16 09:51:18;;;;;;;16.27;10.49;;;;;;;;;;359345;150;856357;-59
2021/10/16 09:52:20;;;;;;;18.67;12.21;;;;;;;;;;359358;148;856675;-59
2021/10/16 09:53:22;;;;;;;19.24;12.44;;;;;;;;;;358234;147;856236;-58
2021/10/16 09:54:23;;;;;;;21.39;12.01;;;;;;;;;;358761;149;856244;-59
2021/10/16 09:55:25;;;;;;;18.95;12.64;;;;;;;;;;359930;149;856192;-59
2021/10/16 09:56:27;;;;;;;19.41;13.21;;;;;;;;;;359649;147;856325;-59
2021/10/16 09:57:28;;;;;;;19.33;11.28;;;;;;;;;;354915;148;863824;-59
2021/10/16 09:58:30;;;;;;;23.66;12.34;;;;;;;;;;353046;149;856145;-60
2021/10/16 09:59:31;;;;;;;20.01;12.79;;;;;;;;;;359089;147;856218;-59
2021/10/16 10:00:34;;;;;;;18.59;12.21;;;;;;;;;;360040;147;856898;-59
2021/10/16 10:01:36;;;;;;;18.76;12.35;;;;;;;;;;359578;149;863680;-60
2021/10/16 10:02:37;;;;;;;16.15;10.24;;;;;;;;;;353371;151;856883;-59
2021/10/16 10:03:40;;;;;;;21.36;11.44;;;;;;;;;;350584;150;859545;-59
2021/10/16 10:04:42;;;;;;;18.40;11.54;;;;;;;;;;356866;150;856689;-59
2021/10/16 10:05:44;;;;;;;17.65;13.25;;;;;;;;;;356811;150;857897;-59
2021/10/16 10:06:46;;;;;;;17.57;12.19;;;;;;;;;;358307;148;857443;-59
2021/10/16 10:07:48;;;;;;;16.05;10.34;;;;;;;;;;358764;150;866125;-59
2021/10/16 10:08:50;;;;;;;18.89;12.28;;;;;;;;;;351695;150;856716;-60
2021/10/16 10:09:52;;;;;;;16.21;10.99;;;;;;;;;;354681;150;857703;-60
2021/10/16 10:10:53;;;;;;;18.63;11.35;;;;;;;;;;355915;149;856408;-59
2021/10/16 10:11:55;;;;;;;20.54;12.01;;;;;;;;;;355442;149;857278;-58
2021/10/16 10:12:56;;;;;;;21.00;9.94;;;;;;;;;;356480;150;857290;-59
2021/10/16 10:13:58;;;;;;;25.01;10.94;;;;;;;;;;358096;149;859119;-59
2021/10/16 10:15:00;;;;;;;17.56;9.18;;;;;;;;;;353302;149;857894;-59
2021/10/16 10:16:01;;;;;;;15.11;8.96;;;;;;;;;;355338;151;859145;-59
2021/10/16 10:17:07;;;;;;;19.89;10.98;;;;;;;;;;357384;148;858763;-60
2021/10/16 10:19:28;;;;;;;;;;;;;;;;;;354109;153;856653;-60
2021/10/16 10:20:30;;;;;;;17.71;10.06;;;;;;;;;;357278;148;857276;-60
2021/10/16 10:21:33;;;;;;;15.78;10.39;;;;;;;;;;356365;149;857169;-60
2021/10/16 10:22:35;;;;;;;16.11;9.63;;;;;;;;;;348761;150;857332;-59
2021/10/16 10:23:38;;;;;;;16.62;10.10;;;;;;;;;;351934;149;857339;-59
2021/10/16 10:24:41;;;;;;;16.98;10.40;;;;;;;;;;355689;149;858025;-60
2021/10/16 10:25:43;;;;;;;16.93;9.82;;;;;;;;;;357116;149;865537;-60
2021/10/16 10:26:45;;;;;;;18.32;11.27;;;;;;;;;;355561;150;860697;-60
2021/10/16 10:27:47;;;;;;;20.21;11.29;;;;;;;;;;356760;149;865203;-60
2021/10/16 10:28:53;;;;;;;14.25;9.09;;;;;;;;;;357376;149;857827;-59
2021/10/16 10:29:55;;;;;;;15.17;10.35;;;;;;;;;;356422;151;858011;-59
2021/10/16 10:30:58;;;;;;;18.12;12.02;;;;;;;;;;357574;148;857422;-60
2021/10/16 10:32:00;;;;;;;23.44;10.75;;;;;;;;;;357844;149;864737;-60
2021/10/16 10:33:19;;;;;;;19.59;12.40;;;;;;;;;;356220;148;865024;-60
2021/10/16 10:34:22;;;;;;;18.17;9.94;;;;;;;;;;357194;148;857269;-60
2021/10/16 10:35:23;;;;;;;15.23;10.88;;;;;;;;;;355250;149;857533;-60
2021/10/16 10:36:25;;;;;;;18.44;9.86;;;;;;;;;;355310;149;859083;-59
2021/10/16 10:37:31;;;;;;;19.11;11.01;;;;;;;;;;356517;148;864931;-60
2021/10/16 10:38:34;;;;;;;16.14;9.95;;;;;;;;;;357822;149;857209;-60
2021/10/16 10:39:37;;;;;;;17.31;10.43;;;;;;;;;;358121;149;857344;-60
2021/10/16 10:40:39;;;;;;;15.86;9.25;;;;;;;;;;350086;152;857334;-60
2021/10/16 10:41:41;;;;;;;17.24;10.98;;;;;;;;;;343672;154;858357;-60
2021/10/16 10:42:43;;;;;;;17.51;10.14;;;;;;;;;;344995;154;865093;-59
2021/10/16 10:43:44;;;;;;;16.59;10.77;;;;;;;;;;342253;157;859705;-60
2021/10/16 10:44:50;;;;;;;14.06;8.71;;;;;;;;;;345124;152;859538;-59
2021/10/16 10:45:52;;;;;;;16.83;10.78;;;;;;;;;;345777;154;858148;-59
2021/10/16 10:46:55;;;;;;;13.21;8.56;;;;;;;;;;345981;154;857797;-60
2021/10/16 10:47:58;;;;;;;17.19;11.28;;;;;;;;;;348494;152;865188;-60
2021/10/16 10:49:06;;;;;;;18.86;11.04;;;;;;;;;;346421;153;857924;-59
2021/10/16 10:50:09;;;;;;;18.93;11.27;;;;;;;;;;345867;152;860199;-59
2021/10/16 10:51:12;;;;;;;17.18;11.17;;;;;;;;;;352440;152;859488;-59
2021/10/16 10:52:15;;;;;;;20.27;11.69;;;;;;;;;;345366;153;857389;-59
2021/10/16 10:53:24;;;;;;;14.52;9.79;;;;;;;;;;346036;154;857449;-60
2021/10/16 10:54:30;;;;;;;17.43;11.23;;;;;;;;;;344123;154;857392;-60
2021/10/16 10:55:29;;;;;;;15.77;10.29;;;;;;;;;;350636;152;857335;-60
2021/10/16 10:56:33;;;;;;;11.68;8.25;;;;;;;;;;344843;155;858848;-60
2021/10/16 10:57:47;;;;;;;14.69;8.94;;;;;;;;;;339913;157;856167;-60
2021/10/16 10:58:56;;;;;;;14.81;9.96;;;;;;;;;;350353;152;856351;-60
2021/10/16 10:59:57;;;;;;;18.04;10.26;;;;;;;;;;349431;153;856303;-59
2021/10/16 11:01:00;;;;;;;22.42;11.70;;;;;;;;;;349230;152;856997;-60
2021/10/16 11:02:03;;;;;;;14.41;10.49;;;;;;;;;;350362;151;856215;-60
2021/10/16 11:03:23;;;;;;;15.96;9.33;;;;;;;;;;349567;152;856398;-60
2021/10/16 11:04:32;;;;;;;16.48;9.39;;;;;;;;;;339949;155;863838;-60
2021/10/16 11:05:34;;;;;;;14.75;10.50;;;;;;;;;;348354;152;856277;-60
2021/10/16 11:06:36;;;;;;;18.85;9.33;;;;;;;;;;339656;154;856244;-60
2021/10/16 11:07:47;;;;;;;15.65;10.56;;;;;;;;;;346524;152;856278;-60
2021/10/16 11:08:49;;;;;;;14.44;9.48;;;;;;;;;;346504;152;856361;-60
2021/10/16 11:09:51;;;;;;;15.04;10.57;;;;;;;;;;340215;155;856525;-60
2021/10/16 11:10:54;;;;;;;15.63;9.93;;;;;;;;;;337046;156;856762;-60
2021/10/16 11:11:56;;;;;;;13.44;8.94;;;;;;;;;;353304;149;856328;-60
2021/10/16 11:12:58;;;;;;;14.89;9.19;;;;;;;;;;355902;148;856169;-60
2021/10/16 11:14:01;;;;;;;14.62;8.85;;;;;;;;;;356945;148;864011;-60
2021/10/16 11:17:13;;;;;;;14.51;8.66;;;;;;;17.17;38.72;99946.93;376928;139;878909;-70
2021/10/16 11:18:16;;;;;;;14.10;8.04;;;;;;;17.07;38.44;99940.31;369465;144;857131;-69
2021/10/16 11:19:17;;;;;;;15.71;8.89;;;;;;;17.06;38.50;99949.94;369236;144;859748;-69
2021/10/16 11:20:27;;;;;;;17.39;9.13;;;;;;;17.10;38.21;99955.06;368849;144;857425;-69
2021/10/16 11:21:29;;;;;;;15.49;8.98;;;;;;;17.15;37.65;99948.75;371034;144;857313;-68
2021/10/16 11:22:46;;;;;;;16.21;9.37;;;;;;;17.25;37.55;99954.52;365820;147;859154;-68
2021/10/16 11:23:48;;;;;;;14.80;9.64;;;;;;;17.36;37.62;99954.13;370008;143;864023;-68
2021/10/16 11:25:00;;;;;;;16.87;9.87;;;;;;;17.43;37.68;99939.91;371415;141;857755;-68
2021/10/16 11:26:05;;;;;;;18.64;9.62;;;;;;;17.43;37.88;99949.53;366755;144;857253;-68
2021/10/16 11:27:07;;;;;;;16.38;9.72;;;;;;;17.32;37.59;99950.77;367666;144;857398;-68
2021/10/16 11:28:10;;;;;;;16.73;10.45;;;;;;;17.23;38.01;99944.09;371662;143;866224;-69
2021/10/16 11:29:12;;;;;;;18.78;9.81;;;;;;;17.12;38.33;99945.40;369653;144;865022;-69
2021/10/16 11:30:17;;;;;;;13.49;9.91;;;;;;;17.05;38.94;99935.16;363660;147;858492;-70
2021/10/16 11:31:21;;;;;;;15.50;9.57;;;;;;;17.05;38.70;99940.38;361992;146;865505;-70
2021/10/16 11:32:24;;;;;;;16.31;8.62;;;;;;;17.00;38.20;99944.92;370452;144;859379;-70
2021/10/16 11:33:28;;;;;;;19.44;9.69;;;;;;;17.05;38.49;99936.91;371664;144;866536;-70
2021/10/16 11:34:30;;;;;;;12.79;7.46;;;;;;;17.05;38.46;99940.38;368640;143;857487;-69
2021/10/16 11:35:31;;;;;;;15.00;10.08;;;;;;;17.05;38.58;99934.28;369619;141;857301;-69
2021/10/16 11:36:34;;;;;;;20.49;11.44;;;;;;;17.07;39.10;99937.70;373275;144;865134;-69
2021/10/16 11:37:44;;;;;;;12.51;8.87;;;;;;;17.06;39.68;99936.86;368556;142;857790;-69
2021/10/16 11:38:50;;;;;;;13.24;8.82;;;;;;;17.08;39.29;99940.28;371810;144;859151;-68
2021/10/16 11:39:59;;;;;;;15.58;9.81;;;;;;;;;;371901;141;857341;-68
2021/10/16 11:41:01;;;;;;;15.29;8.94;;;;;;;;;;369087;142;865087;-68
2021/10/16 11:42:03;;;;;;;18.02;10.14;;;;;;;;;;372271;143;857674;-68
2021/10/16 11:43:10;;;;;;;14.99;9.42;;;;;;;;;;371453;144;858695;-68
2021/10/16 11:44:11;;;;;;;17.93;8.64;;;;;;;;;;368411;144;857763;-68
2021/10/16 11:45:14;;;;;;;16.85;10.10;;;;;;;;;;372639;141;859242;-69
2021/10/16 11:46:17;;;;;;;16.12;9.23;;;;;;;;;;369716;141;860807;-68
2021/10/16 11:47:20;;;;;;;14.43;9.00;;;;;;;;;;371837;141;857325;-68
2021/10/16 11:48:22;;;;;;;16.66;9.51;;;;;;;;;;370421;143;864835;-68
2021/10/16 11:49:24;;;;;;;13.89;9.06;;;;;;;;;;370038;144;857216;-68
2021/10/16 11:50:27;;;;;;;16.39;11.04;;;;;;;;;;368994;144;857306;-69
2021/10/16 11:51:30;;;;;;;15.23;10.14;;;;;;;;;;369980;142;857793;-68
2021/10/16 11:52:32;;;;;;;15.97;10.54;;;;;;;;;;372210;143;865032;-69
2021/10/16 11:53:34;;;;;;;15.09;9.69;;;;;;;;;;371459;141;857282;-69
2021/10/16 11:54:36;;;;;;;19.62;9.32;;;;;;;;;;368622;144;857942;-68
2021/10/16 11:55:39;;;;;;;12.92;9.39;;;;;;;;;;370194;141;865418;-68
2021/10/16 11:56:40;;;;;;;15.01;9.23;;;;;;;;;;370105;144;865264;-68
2021/10/16 11:57:42;;;;;;;17.29;9.46;;;;;;;;;;369977;142;859063;-69
2021/10/16 11:58:44;;;;;;;18.07;9.15;;;;;;;;;;368502;144;865247;-68
2021/10/16 11:59:45;;;;;;;12.77;8.87;;;;;;;;;;371859;142;857386;-68
2021/10/16 12:00:48;;;;;;;18.59;9.77;;;;;;;;;;369044;141;857335;-68
2021/10/16 12:01:49;;;;;;;15.06;9.27;;;;;;;;;;371635;142;866009;-68
2021/10/16 12:02:51;;;;;;;14.25;8.36;;;;;;;;;;369463;143;858875;-68
2021/10/16 12:03:53;;;;;;;13.92;8.24;;;;;;;;;;364303;147;857595;-67
2021/10/16 12:05:08;;;;;;;14.41;9.20;;;;;;;;;;363427;145;865571;-68
2021/10/16 12:06:15;;;;;;;16.14;10.07;;;;;;;;;;364298;143;857840;-69
2021/10/16 12:07:16;;;;;;;18.96;10.38;;;;;;;;;;369326;141;857044;-69
2021/10/16 12:08:19;;;;;;;17.38;9.23;;;;;;;;;;368758;142;858400;-68
2021/10/16 12:09:21;;;;;;;20.77;10.10;;;;;;;;;;369520;144;864853;-69
2021/10/16 12:10:25;;;;;;;16.05;9.25;;;;;;;;;;370467;141;860914;-68
2021/10/16 12:11:29;;;;;;;16.30;10.03;;;;;;;;;;371295;144;857350;-68
2021/10/16 12:12:31;;;;;;;17.07;10.93;;;;;;;;;;369890;141;857380;-69
2021/10/16 12:13:36;;;;;;;15.09;10.33;;;;;;;;;;367620;144;857304;-69
2021/10/16 12:14:37;;;;;;;18.52;10.92;;;;;;;;;;375560;141;857477;-69
2021/10/16 12:15:41;;;;;;;13.77;9.85;;;;;;;;;;371410;141;857480;-69
2021/10/16 12:16:43;;;;;;;16.79;9.88;;;;;;;;;;370885;143;859670;-69
2021/10/16 12:17:44;;;;;;;15.44;9.83;;;;;;;;;;365622;145;859458;-69
2021/10/16 12:18:55;;;;;;;16.48;10.29;;;;;;;;;;363130;144;857228;-68
2021/10/16 12:19:57;;;;;;;15.03;8.75;;;;;;;;;;366830;144;857532;-68
2021/10/16 12:21:01;;;;;;;13.16;8.79;;;;;;;;;;364950;145;857997;-69
2021/10/16 12:33:57;;;;;;;16.86;9.06;;;;;;;26.49;23.31;99906.11;370159;141;868667;-65
2021/10/16 12:35:01;;;;;;;13.65;8.24;;;;;;;;;;364310;147;858624;-65
2021/10/16 12:36:03;;;;;;;16.81;9.17;;;;;;;;;;360753;148;857315;-64
2021/10/16 12:37:06;;;;;;;13.40;8.49;;;;;;;;;;360297;147;859207;-64
2021/10/16 12:38:07;;;;;;;13.87;9.35;;;;;;;;;;360090;147;857863;-67
2021/10/16 12:39:09;;;;;;;14.04;8.38;;;;;;;;;;358940;148;866567;-64
2021/10/16 12:40:13;;;;;;;19.71;9.83;;;;;;;;;;359194;148;865139;-67
2021/10/16 12:41:35;;;;;;;14.56;9.74;;;;;;;;;;360240;147;857111;-67
2021/10/16 12:42:38;;;;;;;16.29;9.27;;;;;;;;;;361336;148;860126;-66
2021/10/16 12:43:40;;;;;;;16.19;10.93;;;;;;;;;;362485;148;857433;-67
2021/10/16 12:44:45;;;;;;;13.16;8.83;;;;;;;;;;359880;147;857312;-65
2021/10/16 12:45:47;;;;;;;13.96;8.85;;;;;;;;;;362433;148;866862;-66
2021/10/16 12:46:50;;;;;;;19.16;8.94;;;;;;;;;;359034;147;857229;-68
2021/10/16 12:47:51;;;;;;;14.76;8.26;;;;;;;;;;362196;148;859601;-69
2021/10/16 12:48:53;;;;;;;16.56;9.60;;;;;;;;;;359958;148;857427;-68
2021/10/16 12:49:57;;;;;;;15.49;8.97;;;;;;;;;;355977;147;865039;-67
2021/10/16 12:51:00;;;;;;;15.44;8.22;;;;;;;;;;359461;147;859082;-70
2021/10/16 12:52:02;;;;;;;15.51;8.43;;;;;;;;;;361455;147;857555;-68
2021/10/16 12:53:04;;;;;;;14.87;8.25;;;;;;;;;;351620;151;858938;-67
2021/10/16 12:54:05;;;;;;;14.99;7.99;;;;;;;;;;360785;147;858893;-70
2021/10/16 12:55:15;;;;;;;14.04;7.84;;;;;;;;;;359974;147;856265;-67
2021/10/16 12:56:20;;;;;;;15.81;8.26;;;;;;;;;;358942;148;858013;-65
2021/10/16 12:57:22;;;;;;;16.78;8.14;;;;;;;;;;359090;145;856201;-67
2021/10/16 12:58:25;;;;;;;12.36;8.06;;;;;;;;;;353618;151;865078;-64
2021/10/16 12:59:27;;;;;;;11.44;7.81;;;;;;;;;;354084;148;863829;-65
2021/10/16 13:00:30;;;;;;;15.87;8.27;;;;;;;;;;352815;148;864007;-67
2021/10/16 13:01:32;;;;;;;13.46;8.99;;;;;;;;;;359547;147;856369;-64
2021/10/16 13:02:34;;;;;;;13.15;8.90;;;;;;;;;;361528;147;856254;-64
2021/10/16 13:03:35;;;;;;;16.11;8.88;;;;;;;;;;358788;148;864566;-62
2021/10/16 13:04:42;;;;;;;13.51;8.84;;;;;;;;;;360064;147;864062;-65
2021/10/16 13:05:44;;;;;;;12.78;8.48;;;;;;;;;;360708;147;864126;-66
2021/10/16 13:06:45;;;;;;;15.59;9.09;;;;;;;;;;361002;148;859169;-65
2021/10/16 13:07:47;;;;;;;14.84;8.71;;;;;;;;;;357525;148;865204;-63
2021/10/16 13:08:49;;;;;;;13.77;8.91;;;;;;;;;;359162;147;865143;-64
2021/10/16 13:09:50;;;;;;;18.75;9.07;;;;;;;;;;358681;147;868079;-66
2021/10/16 13:10:53;;;;;;;15.92;9.20;;;;;;;;;;360449;148;857875;-65
2021/10/16 13:11:55;;;;;;;17.79;8.74;;;;;;;;;;362337;147;856216;-65
2021/10/16 13:12:56;;;;;;;15.43;9.11;;;;;;;;;;359871;147;856234;-66
2021/10/16 13:13:58;;;;;;;14.82;9.14;;;;;;;;;;361580;148;856242;-67
2021/10/16 13:15:00;;;;;;;13.63;9.19;;;;;;;;;;358917;148;856347;-63
2021/10/16 13:16:02;;;;;;;16.15;9.47;;;;;;;;;;359440;147;856310;-63
2021/10/16 13:17:04;;;;;;;20.49;9.89;;;;;;;;;;359149;148;856308;-67
2021/10/16 13:18:06;;;;;;;15.15;9.65;;;;;;;;;;357058;149;863791;-69
2021/10/16 13:19:07;;;;;;;15.73;9.03;;;;;;;;;;359734;147;856444;-65
2021/10/16 13:20:09;;;;;;;15.26;8.53;;;;;;;;;;359727;147;856383;-62
2021/10/16 13:21:11;;;;;;;16.31;9.59;;;;;;;;;;360882;148;856876;-62
2021/10/16 13:22:12;;;;;;;17.44;9.03;;;;;;;;;;359125;147;856772;-62
2021/10/16 13:23:14;;;;;;;15.51;9.44;;;;;;;;;;359634;147;856476;-63
2021/10/16 13:24:15;;;;;;;15.11;9.94;;;;;;;;;;360357;148;864497;-62
2021/10/16 13:25:17;;;;;;;14.31;9.69;;;;;;;;;;358980;148;856512;-62
2021/10/16 13:26:19;;;;;;;14.67;9.50;;;;;;;;;;361005;147;857139;-65
2021/10/16 13:27:20;;;;;;;18.91;10.14;;;;;;;;;;360024;147;863936;-64
2021/10/16 13:28:22;;;;;;;15.05;9.77;;;;;;;;;;359167;148;857355;-60
2021/10/16 13:29:23;;;;;;;15.52;9.55;;;;;;;;;;360504;148;856270;-62
2021/10/16 13:30:26;;;;;;;20.51;9.95;;;;;;;;;;361369;147;856346;-63
2021/10/16 13:31:28;;;;;;;17.39;9.13;;;;;;;;;;360278;148;856314;-60
2021/10/16 13:32:30;;;;;;;12.00;7.84;;;;;;;;;;360180;148;856279;-63
2021/10/16 13:33:31;;;;;;;13.70;8.08;;;;;;;;;;361339;147;856301;-62
2021/10/16 13:34:33;;;;;;;14.59;8.41;;;;;;;;;;355600;150;856274;-62
2021/10/16 13:35:35;;;;;;;12.94;7.80;;;;;;;;;;356972;148;856950;-62
2021/10/16 13:36:37;;;;;;;14.66;7.87;;;;;;;;;;355313;148;857122;-61
2021/10/16 13:37:39;;;;;;;12.96;7.66;;;;;;;;;;357197;148;856868;-63
2021/10/16 13:38:40;;;;;;;13.66;8.23;;;;;;;;;;355969;150;866862;-60
2021/10/16 13:39:42;;;;;;;13.59;8.16;;;;;;;;;;353759;148;858432;-64
2021/10/16 13:40:45;;;;;;;10.95;7.46;;;;;;;;;;355922;148;859351;-62
2021/10/16 13:41:47;;;;;;;12.23;7.48;;;;;;;;;;354597;150;860022;-61
2021/10/16 13:42:48;;;;;;;12.17;8.12;;;;;;;;;;355142;148;858338;-60
2021/10/16 13:43:50;;;;;;;13.08;7.69;;;;;;;;;;350467;151;858462;-63
2021/10/16 13:44:52;;;;;;;13.34;8.04;;;;;;;;;;351550;150;857370;-63
2021/10/16 13:45:53;;;;;;;15.14;8.24;;;;;;;;;;355942;150;857301;-60
2021/10/16 13:46:55;;;;;;;12.86;8.17;;;;;;;;;;354071;150;856326;-64
2021/10/16 13:47:57;;;;;;;12.96;7.91;;;;;;;;;;357958;148;856358;-65
2021/10/16 13:48:58;;;;;;;13.09;7.86;;;;;;;;;;355702;148;864462;-63
2021/10/16 13:50:00;;;;;;;15.66;7.66;;;;;;;;;;356313;148;856867;-62
2021/10/16 13:51:01;;;;;;;13.58;7.96;;;;;;;;;;356736;148;856323;-62
2021/10/16 13:52:06;;;;;;;13.35;8.27;;;;;;;;;;352745;150;856840;-64
2021/10/16 13:53:08;;;;;;;12.58;8.18;;;;;;;;;;356414;148;865975;-63
2021/10/16 13:54:09;;;;;;;13.11;8.14;;;;;;;;;;356933;149;863403;-64
2021/10/16 13:55:11;;;;;;;12.65;7.84;;;;;;;;;;350987;142;859228;-61
2021/10/16 13:56:13;;;;;;;11.68;7.99;;;;;;;;;;351859;151;857357;-63
2021/10/16 13:57:14;;;;;;;15.80;8.04;;;;;;;;;;349574;151;856497;-62
2021/10/16 13:58:16;;;;;;;14.84;8.06;;;;;;;;;;349169;151;856863;-62
2021/10/16 13:59:17;;;;;;;11.66;7.96;;;;;;;;;;350118;151;863989;-63
2021/10/16 14:00:19;;;;;;;15.97;7.69;;;;;;;;;;350419;151;857329;-60
2021/10/16 14:01:21;;;;;;;15.75;8.21;;;;;;;;;;348712;151;857725;-61
2021/10/16 14:02:23;;;;;;;14.27;7.84;;;;;;;;;;347579;150;858568;-62
2021/10/16 14:03:24;;;;;;;15.01;7.95;;;;;;;;;;351456;151;856291;-61
2021/10/16 14:04:27;;;;;;;17.46;8.09;;;;;;;;;;350386;151;864396;-65
2021/10/16 14:05:28;;;;;;;15.89;9.08;;;;;;;;;;349838;151;865100;-64
2021/10/16 14:06:30;;;;;;;18.62;9.22;;;;;;;;;;354929;149;856254;-64
2021/10/16 14:07:32;;;;;;;14.54;9.68;;;;;;;;;;351668;151;859250;-63
2021/10/16 14:08:33;;;;;;;18.80;10.04;;;;;;;;;;349521;151;859557;-63
2021/10/16 14:09:35;;;;;;;26.34;14.48;;;;;;;;;;348250;151;857850;-63
2021/10/16 14:10:37;;;;;;;29.63;16.75;;;;;;;;;;348376;151;857274;-62
2021/10/16 14:11:38;;;;;;;22.13;12.25;;;;;;;;;;348888;151;857524;-66
2021/10/16 14:12:40;;;;;;;21.16;11.17;;;;;;;;;;348838;151;857434;-63
2021/10/16 14:13:42;;;;;;;17.06;9.83;;;;;;;;;;348370;151;865588;-66
2021/10/16 14:14:43;;;;;;;23.62;12.59;;;;;;;;;;347641;151;857335;-62
2021/10/16 14:15:45;;;;;;;22.51;11.64;;;;;;;;;;347694;151;859049;-64
2021/10/16 14:16:47;;;;;;;26.41;12.33;;;;;;;;;;346626;151;859716;-62
2021/10/16 14:17:49;;;;;;;23.04;12.30;;;;;;;;;;347369;151;857345;-62
2021/10/16 14:18:50;;;;;;;19.39;11.92;;;;;;;;;;348091;151;857423;-62
2021/10/16 14:19:52;;;;;;;24.74;12.08;;;;;;;;;;345844;151;856274;-63
2021/10/16 14:20:54;;;;;;;21.81;12.98;;;;;;;;;;350832;151;856248;-63
2021/10/16 14:21:56;;;;;;;21.94;12.16;;;;;;;;;;351204;150;863777;-63
2021/10/16 14:22:58;;;;;;;25.25;11.89;;;;;;;;;;348901;151;856233;-62
2021/10/16 14:23:59;;;;;;;20.85;11.10;;;;;;;;;;350651;151;856346;-64
2021/10/16 14:25:01;;;;;;;21.48;12.19;;;;;;;;;;350579;151;864271;-65
2021/10/16 14:26:03;;;;;;;24.04;12.47;;;;;;;;;;348026;151;864220;-64
2021/10/16 14:27:05;;;;;;;29.03;15.42;;;;;;;;;;351587;151;865765;-64
2021/10/16 14:28:06;;;;;;;34.27;13.93;;;;;;;;;;347167;151;856174;-64
2021/10/16 14:29:08;;;;;;;23.96;14.12;;;;;;;;;;348280;151;857245;-64
2021/10/16 14:30:10;;;;;;;19.34;10.75;;;;;;;;;;349403;151;856241;-62
2021/10/16 14:31:12;;;;;;;20.57;10.61;;;;;;;;;;349443;151;866135;-62
2021/10/16 14:32:13;;;;;;;19.34;11.25;;;;;;;;;;351431;149;857399;-63
2021/10/16 14:33:15;;;;;;;18.60;9.76;;;;;;;;;;349352;151;857307;-63
2021/10/16 14:34:16;;;;;;;32.51;10.65;;;;;;;;;;348210;151;859155;-63
2021/10/16 14:35:18;;;;;;;21.27;10.90;;;;;;;;;;346383;151;859718;-62
2021/10/16 14:36:20;;;;;;;20.31;12.28;;;;;;;;;;349595;151;864864;-62
2021/10/16 14:37:21;;;;;;;27.29;12.69;;;;;;;;;;353119;151;863662;-63
2021/10/16 14:38:23;;;;;;;17.54;11.16;;;;;;;;;;350981;151;856653;-62
2021/10/16 14:39:24;;;;;;;23.31;12.26;;;;;;;;;;350229;151;856446;-62
2021/10/16 14:40:26;;;;;;;19.13;11.24;;;;;;;;;;351092;151;864894;-61
2021/10/16 14:41:28;;;;;;;22.89;11.86;;;;;;;;;;349108;151;857796;-61
2021/10/16 14:42:29;;;;;;;23.16;10.77;;;;;;;;;;351701;151;857250;-62
2021/10/16 14:43:31;;;;;;;24.30;11.58;;;;;;;;;;347567;151;856501;-62
2021/10/16 14:44:32;;;;;;;25.04;11.54;;;;;;;;;;351840;151;857160;-63
2021/10/16 14:45:34;;;;;;;27.88;12.85;;;;;;;;;;347198;150;857465;-63
2021/10/16 14:46:36;;;;;;;22.22;11.94;;;;;;;;;;350526;149;860476;-63
2021/10/16 14:47:37;;;;;;;21.69;11.88;;;;;;;;;;345756;151;866085;-62
2021/10/16 14:48:40;;;;;;;18.11;11.80;;;;;;;;;;354597;151;865735;-62
2021/10/16 14:49:41;;;;;;;20.48;11.60;;;;;;;;;;353626;150;858406;-62
2021/10/16 14:50:43;;;;;;;18.43;11.21;;;;;;;;;;349858;151;857432;-63
2021/10/16 14:51:45;;;;;;;22.54;12.66;;;;;;;;;;353550;151;865901;-62
2021/10/16 14:52:46;;;;;;;21.34;12.34;;;;;;;;;;350029;151;860638;-63
2021/10/16 14:53:48;;;;;;;45.83;13.51;;;;;;;;;;350444;150;865601;-62
2021/10/16 14:54:49;;;;;;;20.22;11.69;;;;;;;;;;349275;151;857280;-62
2021/10/16 14:55:51;;;;;;;24.68;13.19;;;;;;;;;;344463;152;857160;-60
2021/10/16 14:56:53;;;;;;;26.59;13.91;;;;;;;;;;344112;152;856251;-62
2021/10/16 14:57:55;;;;;;;24.71;13.53;;;;;;;;;;344158;152;856257;-61
2021/10/16 14:58:56;;;;;;;25.09;13.88;;;;;;;;;;344616;152;863685;-63
2021/10/16 14:59:58;;;;;;;29.66;14.39;;;;;;;;;;342100;152;856491;-61
2021/10/16 15:01:01;;;;;;;26.36;13.91;;;;;;;;;;343985;153;856524;-62
2021/10/16 15:02:03;;;;;;;24.56;12.91;;;;;;;;;;344483;152;864126;-61
2021/10/16 15:03:05;;;;;;;26.12;12.96;;;;;;;;;;338339;156;856216;-60
2021/10/16 15:04:06;;;;;;;21.75;12.40;;;;;;;;;;336831;156;856277;-63
2021/10/16 15:05:08;;;;;;;23.74;13.23;;;;;;;;;;338609;156;856131;-61
2021/10/16 15:06:10;;;;;;;29.87;12.65;;;;;;;;;;335786;158;856710;-62
2021/10/16 15:07:12;;;;;;;25.23;12.99;;;;;;;;;;332798;158;856411;-61
2021/10/16 15:08:13;;;;;;;26.48;13.90;;;;;;;;;;338828;156;856345;-64
2021/10/16 15:09:15;;;;;;;25.01;13.40;;;;;;;;;;337833;156;864125;-62
2021/10/16 15:10:18;;;;;;;25.55;14.48;;;;;;;;;;337180;156;856202;-62